sensor_id;sensor_type;location;lat;lon;timestamp;temperature;humidity
3818;DHT22;1924;48.078;11.516;2023-04-09T00:01:55;5.20;99.90
3818;DHT22;1924;48.078;11.516;2023-04-09T00:04:22;5.20;99.90
3818;DHT22;1924;48.078;11.516;2023-04-09T00:06:48;5.10;99.90
3818;DHT22;1924;48.078;11.516;2023-04-09T00:09:15;5.10;99.90
3818;DHT22;1924;48.078;11.516;2023-04-09T00:11:42;5.20;99.90
3818;DHT22;1924;48.078;11.516;2023-04-09T00:14:10;5.20;99.90
3818;DHT22;1924;48.078;11.516;2023-04-09T00:16:36;5.20;99.90
3818;DHT22;1924;48.078;11.516;2023-04-09T00:19:03;5.10;99.90
3818;DHT22;1924;48.078;11.516;2023-04-09T00:21:30;5.20;99.90
3818;DHT22;1924;48.078;11.516;2023-04-09T00:23:56;5.30;99.90
3818;DHT22;1924;48.078;11.516;2023-04-09T00:26:23;5.20;99.90
3818;DHT22;1924;48.078;11.516;2023-04-09T00:28:50;5.20;99.90
3818;DHT22;1924;48.078;11.516;2023-04-09T00:31:18;5.20;99.90
3818;DHT22;1924;48.078;11.516;2023-04-09T00:33:45;5.20;99.90
3818;DHT22;1924;48.078;11.516;2023-04-09T00:36:11;5.20;99.90
3818;DHT22;1924;48.078;11.516;2023-04-09T00:38:38;5.30;99.90
3818;DHT22;1924;48.078;11.516;2023-04-09T00:41:05;5.30;99.90
3818;DHT22;1924;48.078;11.516;2023-04-09T00:43:32;5.30;99.90
3818;DHT22;1924;48.078;11.516;2023-04-09T00:45:59;5.20;99.90
3818;DHT22;1924;48.078;11.516;2023-04-09T00:48:27;5.30;99.90
3818;DHT22;1924;48.078;11.516;2023-04-09T00:50:54;5.30;99.90
3818;DHT22;1924;48.078;11.516;2023-04-09T00:53:21;5.30;99.90
3818;DHT22;1924;48.078;11.516;2023-04-09T00:55:47;5.30;99.90
3818;DHT22;1924;48.078;11.516;2023-04-09T00:58:14;5.30;99.90
3818;DHT22;1924;48.078;11.516;2023-04-09T01:00:41;5.20;99.90
3818;DHT22;1924;48.078;11.516;2023-04-09T01:03:08;5.20;99.90
3818;DHT22;1924;48.078;11.516;2023-04-09T01:05:43;5.20;99.90
3818;DHT22;1924;48.078;11.516;2023-04-09T01:08:15;5.20;99.90
3818;DHT22;1924;48.078;11.516;2023-04-09T01:10:48;5.20;99.90
3818;DHT22;1924;48.078;11.516;2023-04-09T01:13:22;5.20;99.90
3818;DHT22;1924;48.078;11.516;2023-04-09T01:15:55;5.20;99.90
3818;DHT22;1924;48.078;11.516;2023-04-09T01:18:27;5.10;99.90
3818;DHT22;1924;48.078;11.516;2023-04-09T01:20:59;5.10;99.90
3818;DHT22;1924;48.078;11.516;2023-04-09T01:23:34;5.20;99.90
3818;DHT22;1924;48.078;11.516;2023-04-09T01:26:06;5.20;99.90
3818;DHT22;1924;48.078;11.516;2023-04-09T01:28:41;5.20;99.90
3818;DHT22;1924;48.078;11.516;2023-04-09T01:31:11;5.30;99.90
3818;DHT22;1924;48.078;11.516;2023-04-09T01:33:39;5.30;99.90
3818;DHT22;1924;48.078;11.516;2023-04-09T01:36:06;5.50;99.90
3818;DHT22;1924;48.078;11.516;2023-04-09T01:38:34;5.50;99.90
3818;DHT22;1924;48.078;11.516;2023-04-09T01:41:03;5.40;99.90
3818;DHT22;1924;48.078;11.516;2023-04-09T01:43:31;5.40;99.90
3818;DHT22;1924;48.078;11.516;2023-04-09T01:46:00;5.40;99.90
3818;DHT22;1924;48.078;11.516;2023-04-09T01:48:28;5.30;99.90
3818;DHT22;1924;48.078;11.516;2023-04-09T01:50:56;5.20;99.90
3818;DHT22;1924;48.078;11.516;2023-04-09T01:53:23;5.20;99.90
3818;DHT22;1924;48.078;11.516;2023-04-09T01:55:52;5.30;99.90
3818;DHT22;1924;48.078;11.516;2023-04-09T01:58:20;5.20;99.90
3818;DHT22;1924;48.078;11.516;2023-04-09T02:00:48;5.20;99.90
3818;DHT22;1924;48.078;11.516;2023-04-09T02:03:20;5.10;99.90
3818;DHT22;1924;48.078;11.516;2023-04-09T02:05:53;5.10;99.90
3818;DHT22;1924;48.078;11.516;2023-04-09T02:08:21;5.10;99.90
3818;DHT22;1924;48.078;11.516;2023-04-09T02:10:57;5.10;99.90
3818;DHT22;1924;48.078;11.516;2023-04-09T02:13:25;5.00;99.90
3818;DHT22;1924;48.078;11.516;2023-04-09T02:15:53;5.00;99.90
3818;DHT22;1924;48.078;11.516;2023-04-09T02:18:24;5.10;99.90
3818;DHT22;1924;48.078;11.516;2023-04-09T02:20:53;5.20;99.90
3818;DHT22;1924;48.078;11.516;2023-04-09T02:23:20;5.10;99.90
3818;DHT22;1924;48.078;11.516;2023-04-09T02:25:47;5.00;99.90
3818;DHT22;1924;48.078;11.516;2023-04-09T02:28:14;5.00;99.90
3818;DHT22;1924;48.078;11.516;2023-04-09T02:30:40;5.00;99.90
3818;DHT22;1924;48.078;11.516;2023-04-09T02:33:07;4.90;99.90
3818;DHT22;1924;48.078;11.516;2023-04-09T02:35:35;5.00;99.90
3818;DHT22;1924;48.078;11.516;2023-04-09T02:38:02;5.10;99.90
3818;DHT22;1924;48.078;11.516;2023-04-09T02:40:29;5.00;99.90
3818;DHT22;1924;48.078;11.516;2023-04-09T02:42:56;5.00;99.90
3818;DHT22;1924;48.078;11.516;2023-04-09T02:45:23;5.00;99.90
3818;DHT22;1924;48.078;11.516;2023-04-09T02:47:50;4.90;99.90
3818;DHT22;1924;48.078;11.516;2023-04-09T02:50:17;4.90;99.90
3818;DHT22;1924;48.078;11.516;2023-04-09T02:52:46;4.90;99.90
3818;DHT22;1924;48.078;11.516;2023-04-09T02:55:13;4.90;99.90
3818;DHT22;1924;48.078;11.516;2023-04-09T02:57:40;4.90;99.90
3818;DHT22;1924;48.078;11.516;2023-04-09T03:00:07;4.90;99.90
3818;DHT22;1924;48.078;11.516;2023-04-09T03:02:34;4.90;99.90
3818;DHT22;1924;48.078;11.516;2023-04-09T03:05:01;4.90;99.90
3818;DHT22;1924;48.078;11.516;2023-04-09T03:07:28;4.90;99.90
3818;DHT22;1924;48.078;11.516;2023-04-09T03:09:56;5.00;99.90
3818;DHT22;1924;48.078;11.516;2023-04-09T03:12:23;5.00;99.90
3818;DHT22;1924;48.078;11.516;2023-04-09T03:14:49;5.00;99.90
3818;DHT22;1924;48.078;11.516;2023-04-09T03:17:16;5.10;99.90
3818;DHT22;1924;48.078;11.516;2023-04-09T03:19:43;5.10;99.90
3818;DHT22;1924;48.078;11.516;2023-04-09T03:22:09;5.00;99.90
3818;DHT22;1924;48.078;11.516;2023-04-09T03:24:36;5.00;99.90
3818;DHT22;1924;48.078;11.516;2023-04-09T03:27:04;5.10;99.90
3818;DHT22;1924;48.078;11.516;2023-04-09T03:29:31;5.10;99.90
3818;DHT22;1924;48.078;11.516;2023-04-09T03:31:57;5.10;99.90
3818;DHT22;1924;48.078;11.516;2023-04-09T03:34:24;5.10;99.90
3818;DHT22;1924;48.078;11.516;2023-04-09T03:36:51;5.10;99.90
3818;DHT22;1924;48.078;11.516;2023-04-09T03:39:18;5.00;99.90
3818;DHT22;1924;48.078;11.516;2023-04-09T03:41:44;4.90;99.90
3818;DHT22;1924;48.078;11.516;2023-04-09T04:02:20;4.60;99.90
3818;DHT22;1924;48.078;11.516;2023-04-09T04:04:46;4.50;99.90
3818;DHT22;1924;48.078;11.516;2023-04-09T04:07:13;4.50;99.90
3818;DHT22;1924;48.078;11.516;2023-04-09T04:09:40;4.70;99.90
3818;DHT22;1924;48.078;11.516;2023-04-09T04:12:06;4.60;99.90
3818;DHT22;1924;48.078;11.516;2023-04-09T04:14:34;4.60;99.90
3818;DHT22;1924;48.078;11.516;2023-04-09T04:17:00;4.50;99.90
3818;DHT22;1924;48.078;11.516;2023-04-09T04:19:29;4.50;99.90
3818;DHT22;1924;48.078;11.516;2023-04-09T04:21:55;4.50;99.90
3818;DHT22;1924;48.078;11.516;2023-04-09T04:24:23;4.60;99.90
3818;DHT22;1924;48.078;11.516;2023-04-09T04:26:50;4.50;99.90
3818;DHT22;1924;48.078;11.516;2023-04-09T04:29:16;4.50;99.90
3818;DHT22;1924;48.078;11.516;2023-04-09T04:31:43;4.40;99.90
3818;DHT22;1924;48.078;11.516;2023-04-09T04:34:10;4.30;99.90
3818;DHT22;1924;48.078;11.516;2023-04-09T04:36:38;4.30;99.90
3818;DHT22;1924;48.078;11.516;2023-04-09T04:39:05;4.10;99.90
3818;DHT22;1924;48.078;11.516;2023-04-09T04:41:31;4.20;99.90
3818;DHT22;1924;48.078;11.516;2023-04-09T04:43:58;4.20;99.90
3818;DHT22;1924;48.078;11.516;2023-04-09T04:46:25;4.10;99.90
3818;DHT22;1924;48.078;11.516;2023-04-09T04:48:51;4.30;99.90
3818;DHT22;1924;48.078;11.516;2023-04-09T04:51:18;4.50;99.90
3818;DHT22;1924;48.078;11.516;2023-04-09T04:53:46;4.30;99.90
3818;DHT22;1924;48.078;11.516;2023-04-09T04:56:13;4.20;99.90
3818;DHT22;1924;48.078;11.516;2023-04-09T04:58:40;4.30;99.90
3818;DHT22;1924;48.078;11.516;2023-04-09T05:01:06;4.30;99.90
3818;DHT22;1924;48.078;11.516;2023-04-09T05:03:33;4.10;99.90
3818;DHT22;1924;48.078;11.516;2023-04-09T05:06:00;4.30;99.90
3818;DHT22;1924;48.078;11.516;2023-04-09T05:08:27;4.30;99.90
3818;DHT22;1924;48.078;11.516;2023-04-09T05:10:55;4.40;99.90
3818;DHT22;1924;48.078;11.516;2023-04-09T05:13:22;4.40;99.90
3818;DHT22;1924;48.078;11.516;2023-04-09T05:15:49;4.30;99.90
3818;DHT22;1924;48.078;11.516;2023-04-09T05:18:16;4.10;99.90
3818;DHT22;1924;48.078;11.516;2023-04-09T05:20:42;4.10;99.90
3818;DHT22;1924;48.078;11.516;2023-04-09T05:23:09;3.90;99.90
3818;DHT22;1924;48.078;11.516;2023-04-09T05:25:37;4.00;99.90
3818;DHT22;1924;48.078;11.516;2023-04-09T05:28:05;4.20;99.90
3818;DHT22;1924;48.078;11.516;2023-04-09T05:30:31;4.40;99.90
3818;DHT22;1924;48.078;11.516;2023-04-09T05:32:58;4.40;99.90
3818;DHT22;1924;48.078;11.516;2023-04-09T05:35:25;4.50;99.90
3818;DHT22;1924;48.078;11.516;2023-04-09T05:37:52;4.50;99.90
3818;DHT22;1924;48.078;11.516;2023-04-09T05:40:18;4.50;99.90
3818;DHT22;1924;48.078;11.516;2023-04-09T05:42:45;4.60;99.90
3818;DHT22;1924;48.078;11.516;2023-04-09T05:45:13;4.60;99.90
3818;DHT22;1924;48.078;11.516;2023-04-09T05:47:40;4.60;99.90
3818;DHT22;1924;48.078;11.516;2023-04-09T05:50:07;4.60;99.90
3818;DHT22;1924;48.078;11.516;2023-04-09T05:52:34;4.70;99.90
3818;DHT22;1924;48.078;11.516;2023-04-09T05:55:01;4.70;99.90
3818;DHT22;1924;48.078;11.516;2023-04-09T05:57:28;5.60;99.90
3818;DHT22;1924;48.078;11.516;2023-04-09T05:59:55;7.00;99.90
3818;DHT22;1924;48.078;11.516;2023-04-09T06:02:23;8.30;99.90
3818;DHT22;1924;48.078;11.516;2023-04-09T06:04:50;9.40;99.90
3818;DHT22;1924;48.078;11.516;2023-04-09T06:07:17;10.50;99.90
3818;DHT22;1924;48.078;11.516;2023-04-09T06:09:44;11.30;99.90
3818;DHT22;1924;48.078;11.516;2023-04-09T06:12:11;11.70;99.40
3818;DHT22;1924;48.078;11.516;2023-04-09T06:14:38;12.30;99.70
3818;DHT22;1924;48.078;11.516;2023-04-09T06:17:05;13.60;98.40
3818;DHT22;1924;48.078;11.516;2023-04-09T06:19:33;13.80;95.30
3818;DHT22;1924;48.078;11.516;2023-04-09T06:21:59;14.10;94.30
3818;DHT22;1924;48.078;11.516;2023-04-09T06:24:26;13.20;94.30
3818;DHT22;1924;48.078;11.516;2023-04-09T06:26:53;12.40;94.80
3818;DHT22;1924;48.078;11.516;2023-04-09T06:29:19;12.50;94.60
3818;DHT22;1924;48.078;11.516;2023-04-09T06:31:46;11.50;94.30
3818;DHT22;1924;48.078;11.516;2023-04-09T06:34:13;10.40;95.90
3818;DHT22;1924;48.078;11.516;2023-04-09T06:36:41;9.80;98.50
3818;DHT22;1924;48.078;11.516;2023-04-09T06:39:08;9.70;96.80
3818;DHT22;1924;48.078;11.516;2023-04-09T06:41:35;9.70;97.30
3818;DHT22;1924;48.078;11.516;2023-04-09T06:44:02;9.60;97.40
3818;DHT22;1924;48.078;11.516;2023-04-09T06:46:29;9.60;98.80
3818;DHT22;1924;48.078;11.516;2023-04-09T06:48:55;9.40;98.30
3818;DHT22;1924;48.078;11.516;2023-04-09T06:51:22;9.40;98.30
3818;DHT22;1924;48.078;11.516;2023-04-09T06:53:50;9.70;98.10
3818;DHT22;1924;48.078;11.516;2023-04-09T06:56:17;10.10;97.90
3818;DHT22;1924;48.078;11.516;2023-04-09T06:58:43;10.20;97.80
3818;DHT22;1924;48.078;11.516;2023-04-09T07:01:11;10.50;96.60
3818;DHT22;1924;48.078;11.516;2023-04-09T07:03:38;10.60;95.10
3818;DHT22;1924;48.078;11.516;2023-04-09T07:06:05;10.00;95.10
3818;DHT22;1924;48.078;11.516;2023-04-09T07:08:31;9.30;96.10
3818;DHT22;1924;48.078;11.516;2023-04-09T07:10:59;8.80;95.80
3818;DHT22;1924;48.078;11.516;2023-04-09T07:13:26;9.00;97.00
3818;DHT22;1924;48.078;11.516;2023-04-09T07:15:53;9.00;96.60
3818;DHT22;1924;48.078;11.516;2023-04-09T07:18:19;8.80;96.30
3818;DHT22;1924;48.078;11.516;2023-04-09T07:20:46;8.80;96.40
3818;DHT22;1924;48.078;11.516;2023-04-09T07:23:13;9.00;96.50
3818;DHT22;1924;48.078;11.516;2023-04-09T07:25:40;9.40;96.50
3818;DHT22;1924;48.078;11.516;2023-04-09T07:28:08;9.50;96.00
3818;DHT22;1924;48.078;11.516;2023-04-09T07:30:35;9.70;95.60
3818;DHT22;1924;48.078;11.516;2023-04-09T07:33:02;9.70;96.10
3818;DHT22;1924;48.078;11.516;2023-04-09T07:35:29;9.50;95.60
3818;DHT22;1924;48.078;11.516;2023-04-09T07:37:57;9.10;96.10
3818;DHT22;1924;48.078;11.516;2023-04-09T07:40:24;9.00;96.30
3818;DHT22;1924;48.078;11.516;2023-04-09T07:42:50;8.90;97.10
3818;DHT22;1924;48.078;11.516;2023-04-09T07:45:19;9.20;97.50
3818;DHT22;1924;48.078;11.516;2023-04-09T07:47:46;9.70;96.10
3818;DHT22;1924;48.078;11.516;2023-04-09T07:50:13;9.10;94.80
3818;DHT22;1924;48.078;11.516;2023-04-09T07:52:40;8.80;96.00
3818;DHT22;1924;48.078;11.516;2023-04-09T07:55:07;8.50;95.40
3818;DHT22;1924;48.078;11.516;2023-04-09T07:57:34;8.10;96.60
3818;DHT22;1924;48.078;11.516;2023-04-09T08:00:01;8.50;98.60
3818;DHT22;1924;48.078;11.516;2023-04-09T08:02:29;9.10;96.40
3818;DHT22;1924;48.078;11.516;2023-04-09T08:04:56;9.50;95.60
3818;DHT22;1924;48.078;11.516;2023-04-09T08:07:23;9.90;95.90
3818;DHT22;1924;48.078;11.516;2023-04-09T08:09:50;10.60;96.60
3818;DHT22;1924;48.078;11.516;2023-04-09T08:12:17;10.50;92.70
3818;DHT22;1924;48.078;11.516;2023-04-09T08:14:43;9.90;93.30
3818;DHT22;1924;48.078;11.516;2023-04-09T08:17:10;9.60;92.70
3818;DHT22;1924;48.078;11.516;2023-04-09T08:19:39;9.80;94.20
3818;DHT22;1924;48.078;11.516;2023-04-09T08:22:05;9.80;93.30
3818;DHT22;1924;48.078;11.516;2023-04-09T08:24:32;9.70;94.30
3818;DHT22;1924;48.078;11.516;2023-04-09T08:26:59;10.30;93.90
3818;DHT22;1924;48.078;11.516;2023-04-09T08:29:27;9.70;93.20
3818;DHT22;1924;48.078;11.516;2023-04-09T08:31:54;9.40;93.10
3818;DHT22;1924;48.078;11.516;2023-04-09T08:34:21;8.70;94.20
3818;DHT22;1924;48.078;11.516;2023-04-09T08:36:49;8.80;95.10
3818;DHT22;1924;48.078;11.516;2023-04-09T08:39:16;9.20;95.50
3818;DHT22;1924;48.078;11.516;2023-04-09T08:41:45;9.40;94.10
3818;DHT22;1924;48.078;11.516;2023-04-09T08:44:13;9.60;95.00
3818;DHT22;1924;48.078;11.516;2023-04-09T08:46:40;10.00;93.00
3818;DHT22;1924;48.078;11.516;2023-04-09T08:49:08;9.90;93.80
3818;DHT22;1924;48.078;11.516;2023-04-09T08:51:35;10.00;92.00
3818;DHT22;1924;48.078;11.516;2023-04-09T08:54:05;10.20;92.20
3818;DHT22;1924;48.078;11.516;2023-04-09T08:56:32;9.50;91.70
3818;DHT22;1924;48.078;11.516;2023-04-09T08:58:59;8.90;92.50
3818;DHT22;1924;48.078;11.516;2023-04-09T09:01:26;9.00;93.00
3818;DHT22;1924;48.078;11.516;2023-04-09T09:03:57;9.20;93.50
3818;DHT22;1924;48.078;11.516;2023-04-09T09:06:26;9.30;92.60
3818;DHT22;1924;48.078;11.516;2023-04-09T09:09:10;9.40;94.20
3818;DHT22;1924;48.078;11.516;2023-04-09T09:11:38;9.60;94.30
3818;DHT22;1924;48.078;11.516;2023-04-09T09:14:06;9.60;92.80
3818;DHT22;1924;48.078;11.516;2023-04-09T09:16:35;9.50;94.20
3818;DHT22;1924;48.078;11.516;2023-04-09T09:19:04;9.90;93.00
3818;DHT22;1924;48.078;11.516;2023-04-09T09:21:31;9.60;92.30
3818;DHT22;1924;48.078;11.516;2023-04-09T09:23:59;9.10;93.10
3818;DHT22;1924;48.078;11.516;2023-04-09T09:26:29;9.10;93.70
3818;DHT22;1924;48.078;11.516;2023-04-09T09:28:56;9.10;93.00
3818;DHT22;1924;48.078;11.516;2023-04-09T09:31:24;9.10;93.80
3818;DHT22;1924;48.078;11.516;2023-04-09T09:33:51;9.50;92.00
3818;DHT22;1924;48.078;11.516;2023-04-09T09:36:31;10.00;91.60
3818;DHT22;1924;48.078;11.516;2023-04-09T09:38:59;10.00;91.80
3818;DHT22;1924;48.078;11.516;2023-04-09T09:41:30;10.50;91.60
3818;DHT22;1924;48.078;11.516;2023-04-09T09:43:57;10.10;90.20
3818;DHT22;1924;48.078;11.516;2023-04-09T09:46:24;9.90;91.80
3818;DHT22;1924;48.078;11.516;2023-04-09T09:48:52;9.90;91.80
3818;DHT22;1924;48.078;11.516;2023-04-09T09:51:23;9.50;91.90
3818;DHT22;1924;48.078;11.516;2023-04-09T09:53:54;9.20;92.20
3818;DHT22;1924;48.078;11.516;2023-04-09T09:56:23;8.60;92.70
3818;DHT22;1924;48.078;11.516;2023-04-09T09:59:00;8.60;92.90
3818;DHT22;1924;48.078;11.516;2023-04-09T10:01:31;8.70;93.00
3818;DHT22;1924;48.078;11.516;2023-04-09T10:03:59;8.70;93.20
3818;DHT22;1924;48.078;11.516;2023-04-09T10:06:27;8.60;93.00
3818;DHT22;1924;48.078;11.516;2023-04-09T10:08:56;8.90;93.30
3818;DHT22;1924;48.078;11.516;2023-04-09T10:11:23;8.90;92.40
3818;DHT22;1924;48.078;11.516;2023-04-09T10:13:56;8.70;92.50
3818;DHT22;1924;48.078;11.516;2023-04-09T10:16:24;8.70;92.60
3818;DHT22;1924;48.078;11.516;2023-04-09T10:18:51;8.90;92.30
3818;DHT22;1924;48.078;11.516;2023-04-09T10:21:25;9.20;93.10
3818;DHT22;1924;48.078;11.516;2023-04-09T10:23:55;9.70;94.00
3818;DHT22;1924;48.078;11.516;2023-04-09T10:26:25;9.80;90.90
3818;DHT22;1924;48.078;11.516;2023-04-09T10:29:03;9.80;90.40
3818;DHT22;1924;48.078;11.516;2023-04-09T10:31:45;9.80;89.00
3818;DHT22;1924;48.078;11.516;2023-04-09T10:34:14;9.60;90.40
3818;DHT22;1924;48.078;11.516;2023-04-09T10:36:42;9.80;90.20
3818;DHT22;1924;48.078;11.516;2023-04-09T10:39:11;10.00;90.80
3818;DHT22;1924;48.078;11.516;2023-04-09T10:41:39;10.20;88.30
3818;DHT22;1924;48.078;11.516;2023-04-09T10:44:19;10.40;87.80
3818;DHT22;1924;48.078;11.516;2023-04-09T10:46:46;10.00;87.00
3818;DHT22;1924;48.078;11.516;2023-04-09T10:49:16;10.00;88.10
3818;DHT22;1924;48.078;11.516;2023-04-09T10:51:49;10.00;88.40
3818;DHT22;1924;48.078;11.516;2023-04-09T10:57:19;10.40;87.70
3818;DHT22;1924;48.078;11.516;2023-04-09T10:59:49;10.20;86.40
3818;DHT22;1924;48.078;11.516;2023-04-09T11:05:25;10.40;86.30
3818;DHT22;1924;48.078;11.516;2023-04-09T11:07:55;10.20;87.90
3818;DHT22;1924;48.078;11.516;2023-04-09T11:10:23;10.00;87.10
3818;DHT22;1924;48.078;11.516;2023-04-09T11:12:49;10.10;89.50
3818;DHT22;1924;48.078;11.516;2023-04-09T11:15:18;10.20;88.20
3818;DHT22;1924;48.078;11.516;2023-04-09T11:17:45;10.10;88.30
3818;DHT22;1924;48.078;11.516;2023-04-09T11:20:12;9.90;90.50
3818;DHT22;1924;48.078;11.516;2023-04-09T11:22:39;10.10;88.20
3818;DHT22;1924;48.078;11.516;2023-04-09T11:25:07;10.00;85.00
3818;DHT22;1924;48.078;11.516;2023-04-09T11:27:36;10.00;85.30
3818;DHT22;1924;48.078;11.516;2023-04-09T11:30:03;9.80;88.60
3818;DHT22;1924;48.078;11.516;2023-04-09T11:32:32;9.80;89.20
3818;DHT22;1924;48.078;11.516;2023-04-09T11:34:58;9.70;90.80
3818;DHT22;1924;48.078;11.516;2023-04-09T11:37:25;9.40;90.60
3818;DHT22;1924;48.078;11.516;2023-04-09T11:39:52;9.30;90.80
3818;DHT22;1924;48.078;11.516;2023-04-09T11:42:19;9.40;90.30
3818;DHT22;1924;48.078;11.516;2023-04-09T11:44:47;9.30;90.40
3818;DHT22;1924;48.078;11.516;2023-04-09T11:47:15;9.30;89.80
3818;DHT22;1924;48.078;11.516;2023-04-09T11:49:44;9.50;89.00
3818;DHT22;1924;48.078;11.516;2023-04-09T11:52:12;9.60;90.50
3818;DHT22;1924;48.078;11.516;2023-04-09T11:54:40;9.50;91.00
3818;DHT22;1924;48.078;11.516;2023-04-09T11:57:07;9.40;91.60
3818;DHT22;1924;48.078;11.516;2023-04-09T11:59:37;9.50;90.70
3818;DHT22;1924;48.078;11.516;2023-04-09T12:02:05;9.30;90.50
3818;DHT22;1924;48.078;11.516;2023-04-09T12:04:34;9.30;90.40
3818;DHT22;1924;48.078;11.516;2023-04-09T12:07:02;8.90;90.30
3818;DHT22;1924;48.078;11.516;2023-04-09T12:09:29;9.00;91.00
3818;DHT22;1924;48.078;11.516;2023-04-09T12:11:58;9.20;90.20
3818;DHT22;1924;48.078;11.516;2023-04-09T12:14:26;9.20;89.50
3818;DHT22;1924;48.078;11.516;2023-04-09T12:16:53;9.10;89.30
3818;DHT22;1924;48.078;11.516;2023-04-09T12:19:24;9.10;90.10
3818;DHT22;1924;48.078;11.516;2023-04-09T12:21:53;9.10;90.30
3818;DHT22;1924;48.078;11.516;2023-04-09T12:24:22;9.40;90.30
3818;DHT22;1924;48.078;11.516;2023-04-09T12:26:50;9.30;89.10
3818;DHT22;1924;48.078;11.516;2023-04-09T12:29:18;9.20;87.80
3818;DHT22;1924;48.078;11.516;2023-04-09T12:31:46;9.30;89.20
3818;DHT22;1924;48.078;11.516;2023-04-09T12:34:13;9.50;88.10
3818;DHT22;1924;48.078;11.516;2023-04-09T12:36:40;9.80;87.80
3818;DHT22;1924;48.078;11.516;2023-04-09T12:39:07;10.20;87.00
3818;DHT22;1924;48.078;11.516;2023-04-09T12:41:36;10.40;86.50
3818;DHT22;1924;48.078;11.516;2023-04-09T12:44:02;10.40;85.60
3818;DHT22;1924;48.078;11.516;2023-04-09T12:46:31;10.20;82.60
3818;DHT22;1924;48.078;11.516;2023-04-09T12:48:58;10.20;85.00
3818;DHT22;1924;48.078;11.516;2023-04-09T12:51:25;10.60;85.90
3818;DHT22;1924;48.078;11.516;2023-04-09T12:53:53;10.50;81.00
3818;DHT22;1924;48.078;11.516;2023-04-09T12:56:19;10.50;83.10
3818;DHT22;1924;48.078;11.516;2023-04-09T12:58:47;10.90;83.50
3818;DHT22;1924;48.078;11.516;2023-04-09T13:01:14;10.90;83.40
3818;DHT22;1924;48.078;11.516;2023-04-09T13:03:41;11.30;85.40
3818;DHT22;1924;48.078;11.516;2023-04-09T13:06:07;11.40;85.30
3818;DHT22;1924;48.078;11.516;2023-04-09T13:08:34;11.20;83.60
3818;DHT22;1924;48.078;11.516;2023-04-09T13:11:01;11.50;83.00
3818;DHT22;1924;48.078;11.516;2023-04-09T13:13:28;11.60;83.00
3818;DHT22;1924;48.078;11.516;2023-04-09T13:15:57;12.00;81.20
3818;DHT22;1924;48.078;11.516;2023-04-09T13:18:23;11.60;80.10
3818;DHT22;1924;48.078;11.516;2023-04-09T13:20:50;10.90;81.60
3818;DHT22;1924;48.078;11.516;2023-04-09T13:23:17;10.40;82.70
3818;DHT22;1924;48.078;11.516;2023-04-09T13:25:44;10.20;82.40
3818;DHT22;1924;48.078;11.516;2023-04-09T13:28:10;9.90;85.30
3818;DHT22;1924;48.078;11.516;2023-04-09T13:30:37;10.20;85.70
3818;DHT22;1924;48.078;11.516;2023-04-09T13:33:05;10.10;85.20
3818;DHT22;1924;48.078;11.516;2023-04-09T13:35:32;9.70;87.30
3818;DHT22;1924;48.078;11.516;2023-04-09T13:37:58;9.50;88.20
3818;DHT22;1924;48.078;11.516;2023-04-09T13:40:25;9.40;89.70
3818;DHT22;1924;48.078;11.516;2023-04-09T13:42:52;9.40;89.50
3818;DHT22;1924;48.078;11.516;2023-04-09T13:45:19;9.60;90.00
3818;DHT22;1924;48.078;11.516;2023-04-09T13:47:48;9.50;90.10
3818;DHT22;1924;48.078;11.516;2023-04-09T13:50:16;9.90;90.00
3818;DHT22;1924;48.078;11.516;2023-04-09T13:52:43;9.60;89.70
3818;DHT22;1924;48.078;11.516;2023-04-09T13:55:09;9.50;89.40
3818;DHT22;1924;48.078;11.516;2023-04-09T13:57:36;9.80;90.10
3818;DHT22;1924;48.078;11.516;2023-04-09T14:00:03;9.90;90.00
3818;DHT22;1924;48.078;11.516;2023-04-09T14:02:30;10.00;88.50
3818;DHT22;1924;48.078;11.516;2023-04-09T14:04:57;9.90;89.00
3818;DHT22;1924;48.078;11.516;2023-04-09T14:07:25;9.80;87.90
3818;DHT22;1924;48.078;11.516;2023-04-09T14:09:52;9.90;88.30
3818;DHT22;1924;48.078;11.516;2023-04-09T14:12:18;10.00;87.80
3818;DHT22;1924;48.078;11.516;2023-04-09T14:14:45;10.40;87.00
3818;DHT22;1924;48.078;11.516;2023-04-09T14:17:12;10.60;86.40
3818;DHT22;1924;48.078;11.516;2023-04-09T14:19:39;10.50;85.20
3818;DHT22;1924;48.078;11.516;2023-04-09T14:22:05;10.40;85.60
3818;DHT22;1924;48.078;11.516;2023-04-09T14:24:34;10.40;86.60
3818;DHT22;1924;48.078;11.516;2023-04-09T14:27:04;9.90;86.10
3818;DHT22;1924;48.078;11.516;2023-04-09T14:29:31;9.60;87.70
3818;DHT22;1924;48.078;11.516;2023-04-09T14:31:58;9.60;88.80
3818;DHT22;1924;48.078;11.516;2023-04-09T14:34:25;9.70;87.50
3818;DHT22;1924;48.078;11.516;2023-04-09T14:36:52;10.00;86.80
3818;DHT22;1924;48.078;11.516;2023-04-09T14:39:18;10.00;84.70
3818;DHT22;1924;48.078;11.516;2023-04-09T14:41:47;10.20;86.00
3818;DHT22;1924;48.078;11.516;2023-04-09T14:44:13;10.30;83.30
3818;DHT22;1924;48.078;11.516;2023-04-09T14:46:41;10.20;83.40
3818;DHT22;1924;48.078;11.516;2023-04-09T14:49:08;10.00;84.80
3818;DHT22;1924;48.078;11.516;2023-04-09T14:51:34;9.60;86.70
3818;DHT22;1924;48.078;11.516;2023-04-09T14:54:01;9.70;87.30
3818;DHT22;1924;48.078;11.516;2023-04-09T14:56:28;10.00;84.30
3818;DHT22;1924;48.078;11.516;2023-04-09T14:58:56;10.20;83.40
3818;DHT22;1924;48.078;11.516;2023-04-09T15:01:23;10.60;83.30
3818;DHT22;1924;48.078;11.516;2023-04-09T15:03:51;10.50;81.80
3818;DHT22;1924;48.078;11.516;2023-04-09T15:06:17;10.20;83.10
3818;DHT22;1924;48.078;11.516;2023-04-09T15:08:44;10.00;84.30
3818;DHT22;1924;48.078;11.516;2023-04-09T15:11:14;9.60;87.50
3818;DHT22;1924;48.078;11.516;2023-04-09T15:13:41;9.40;88.10
3818;DHT22;1924;48.078;11.516;2023-04-09T15:16:09;9.30;89.30
3818;DHT22;1924;48.078;11.516;2023-04-09T15:18:36;9.40;89.20
3818;DHT22;1924;48.078;11.516;2023-04-09T15:21:03;9.60;88.90
3818;DHT22;1924;48.078;11.516;2023-04-09T15:23:30;9.80;89.40
3818;DHT22;1924;48.078;11.516;2023-04-09T15:25:56;9.80;87.30
3818;DHT22;1924;48.078;11.516;2023-04-09T15:28:23;9.80;87.90
3818;DHT22;1924;48.078;11.516;2023-04-09T15:30:50;9.80;87.70
3818;DHT22;1924;48.078;11.516;2023-04-09T15:33:18;9.70;87.30
3818;DHT22;1924;48.078;11.516;2023-04-09T15:35:44;9.60;88.10
3818;DHT22;1924;48.078;11.516;2023-04-09T15:38:11;9.90;88.60
3818;DHT22;1924;48.078;11.516;2023-04-09T15:40:39;10.00;87.00
3818;DHT22;1924;48.078;11.516;2023-04-09T15:43:05;10.10;86.00
3818;DHT22;1924;48.078;11.516;2023-04-09T15:45:32;9.80;87.70
3818;DHT22;1924;48.078;11.516;2023-04-09T15:47:59;9.70;87.80
3818;DHT22;1924;48.078;11.516;2023-04-09T15:50:27;9.70;87.70
3818;DHT22;1924;48.078;11.516;2023-04-09T15:52:54;9.50;87.80
3818;DHT22;1924;48.078;11.516;2023-04-09T15:55:21;9.50;88.10
3818;DHT22;1924;48.078;11.516;2023-04-09T15:57:50;9.30;88.10
3818;DHT22;1924;48.078;11.516;2023-04-09T16:00:17;9.30;87.70
3818;DHT22;1924;48.078;11.516;2023-04-09T16:02:44;9.20;88.40
3818;DHT22;1924;48.078;11.516;2023-04-09T16:05:10;9.10;88.20
3818;DHT22;1924;48.078;11.516;2023-04-09T16:07:39;9.10;89.00
3818;DHT22;1924;48.078;11.516;2023-04-09T16:10:06;9.20;90.20
3818;DHT22;1924;48.078;11.516;2023-04-09T16:12:33;9.40;89.40
3818;DHT22;1924;48.078;11.516;2023-04-09T16:15:00;9.40;87.90
3818;DHT22;1924;48.078;11.516;2023-04-09T16:17:27;9.50;86.10
3818;DHT22;1924;48.078;11.516;2023-04-09T16:19:53;9.50;85.70
3818;DHT22;1924;48.078;11.516;2023-04-09T16:22:20;9.50;86.70
3818;DHT22;1924;48.078;11.516;2023-04-09T16:24:48;9.60;86.30